Time;durP1;ratioP1;P1;durP2;ratioP2;P2;SDS_P1;SDS_P2;PMS_P1;PMS_P2;Temp;Humidity;BMP_temperature;BMP_pressure;BME280_temperature;BME280_humidity;BME280_pressure;Samples;Min_cycle;Max_cycle;Signal;HPM_P1;HPM_P2
2022/09/07 00:01:54;;;;;;;21.33;19.08;;;20.10;99.90;;;;;;4984557;28;20040;-66
2022/09/07 00:04:20;;;;;;;18.08;14.95;;;20.10;99.90;;;;;;4984486;28;20119;-66
2022/09/07 00:06:45;;;;;;;19.83;17.60;;;20.10;99.90;;;;;;4995856;28;20044;-64
2022/09/07 00:09:11;;;;;;;20.70;18.48;;;20.10;99.90;;;;;;4971837;28;20515;-65
2022/09/07 00:11:37;;;;;;;20.02;18.02;;;20.10;99.90;;;;;;4986493;28;20120;-66
2022/09/07 00:14:02;;;;;;;19.73;17.83;;;20.10;99.90;;;;;;4992307;28;20632;-66
2022/09/07 00:16:29;;;;;;;18.42;16.52;;;20.10;99.90;;;;;;5009488;28;20076;-64
2022/09/07 00:18:58;;;;;;;21.13;18.92;;;20.10;99.90;;;;;;4994002;28;20516;-65
2022/09/07 00:21:24;;;;;;;24.65;21.35;;;20.00;99.90;;;;;;4964999;28;20520;-65
2022/09/07 00:23:50;;;;;;;22.92;20.48;;;19.90;99.90;;;;;;4977710;28;20061;-64
2022/09/07 00:26:19;;;;;;;23.83;21.30;;;19.90;99.90;;;;;;5005621;28;20073;-64
2022/09/07 00:28:46;;;;;;;23.70;21.10;;;19.80;99.90;;;;;;4980790;28;20459;-64
2022/09/07 00:31:15;;;;;;;22.73;20.33;;;19.70;99.90;;;;;;4966319;28;20042;-67
2022/09/07 00:33:41;;;;;;;24.13;21.60;;;19.60;99.90;;;;;;4972862;28;20397;-65
2022/09/07 00:36:07;;;;;;;21.30;18.95;;;19.60;99.90;;;;;;4971978;28;20042;-65
2022/09/07 00:38:33;;;;;;;22.75;20.45;;;19.60;99.90;;;;;;4949729;28;20038;-65
2022/09/07 00:40:59;;;;;;;21.73;18.73;;;19.60;99.90;;;;;;4981974;28;20053;-65
2022/09/07 00:43:34;;;;;;;22.45;20.20;;;19.60;99.90;;;;;;4966887;28;20497;-66
2022/09/07 00:46:02;;;;;;;23.23;19.08;;;19.60;99.90;;;;;;4953235;28;20136;-65
2022/09/07 00:48:49;;;;;;;19.85;17.42;;;19.60;99.90;;;;;;4966195;28;20042;-63
2022/09/07 00:51:20;;;;;;;17.40;15.27;;;19.50;99.90;;;;;;4981506;28;20038;-63
2022/09/07 00:53:53;;;;;;;16.15;14.45;;;19.40;99.90;;;;;;4962727;28;20050;-63
2022/09/07 00:56:22;;;;;;;17.58;15.52;;;19.40;99.90;;;;;;4983979;28;20046;-65
2022/09/07 00:58:48;;;;;;;16.60;14.05;;;19.40;99.90;;;;;;4949876;28;20132;-66
2022/09/07 01:01:15;;;;;;;15.23;13.60;;;19.40;99.90;;;;;;4987348;28;20385;-64
2022/09/07 01:03:45;;;;;;;18.33;14.57;;;19.40;99.90;;;;;;4966686;28;20049;-64
2022/09/07 01:06:21;;;;;;;20.45;15.00;;;19.40;99.90;;;;;;4954377;28;20137;-62
2022/09/07 01:08:49;;;;;;;14.13;11.98;;;19.30;99.90;;;;;;4980767;28;20044;-65
2022/09/07 01:11:18;;;;;;;16.60;11.45;;;19.30;99.90;;;;;;4954365;28;20420;-65
2022/09/07 01:13:45;;;;;;;14.38;10.65;;;19.30;99.90;;;;;;4982607;28;20043;-66
2022/09/07 01:16:19;;;;;;;14.23;9.52;;;19.20;99.90;;;;;;4968433;28;20417;-64
2022/09/07 01:19:13;;;;;;;12.90;8.68;;;19.20;99.90;;;;;;4997633;28;20042;-65
2022/09/07 01:21:47;;;;;;;17.90;8.18;;;19.20;99.90;;;;;;4955707;28;20585;-63
2022/09/07 01:24:41;;;;;;;13.65;7.10;;;19.20;99.90;;;;;;5009101;28;20045;-64
2022/09/07 01:27:24;;;;;;;15.27;5.50;;;19.10;99.90;;;;;;4969395;28;20111;-63
2022/09/07 01:30:03;;;;;;;;;;;19.10;99.90;;;;;;4986962;28;20050;-63
2022/09/07 01:32:40;;;;;;;9.02;3.53;;;19.00;99.90;;;;;;4982328;28;20003;-67
2022/09/07 01:35:16;;;;;;;14.07;4.07;;;19.00;99.90;;;;;;4983243;28;20047;-65
2022/09/07 01:37:49;;;;;;;8.30;3.28;;;18.90;99.90;;;;;;4970347;28;20316;-65
2022/09/07 01:40:23;;;;;;;8.45;3.10;;;18.90;99.90;;;;;;4970595;28;20047;-67
2022/09/07 01:43:05;;;;;;;11.65;3.03;;;18.90;99.90;;;;;;4962477;28;20397;-63
2022/09/07 01:45:34;;;;;;;5.80;2.60;;;18.90;99.90;;;;;;4971326;28;20124;-64
2022/09/07 01:48:05;;;;;;;11.18;2.83;;;18.90;99.90;;;;;;4991695;28;22036;-66
2022/09/07 01:51:01;;;;;;;8.52;2.80;;;19.00;99.90;;;;;;4963638;28;20046;-61
2022/09/07 01:53:50;;;;;;;7.97;5.57;;;19.10;99.90;;;;;;4977312;28;20058;-63
2022/09/07 01:56:24;;;;;;;11.00;6.63;;;19.00;99.90;;;;;;4964488;28;20532;-62
2022/09/07 01:58:57;;;;;;;7.07;4.50;;;18.80;99.90;;;;;;4984290;28;20041;-62
2022/09/07 02:01:29;;;;;;;14.37;9.10;;;18.80;99.90;;;;;;4998333;28;20480;-63
2022/09/07 02:04:39;;;;;;;13.15;8.02;;;18.90;99.90;;;;;;4997204;28;20045;-63
2022/09/07 02:07:24;;;;;;;14.75;9.70;;;18.90;99.90;;;;;;4963261;28;20571;-62
2022/09/07 02:10:01;;;;;;;13.23;9.35;;;18.90;99.90;;;;;;4986661;28;20046;-62
2022/09/07 02:12:35;;;;;;;14.07;7.55;;;18.90;99.90;;;;;;4998067;28;20038;-62
2022/09/07 02:15:09;;;;;;;13.13;8.38;;;18.90;99.90;;;;;;4995606;28;20045;-62
2022/09/07 02:17:37;;;;;;;;;;;18.90;99.90;;;;;;4975900;28;20061;-65
2022/09/07 02:20:15;;;;;;;9.13;7.65;;;18.90;99.90;;;;;;4999628;28;19929;-62
2022/09/07 02:22:45;;;;;;;12.60;8.82;;;18.90;99.90;;;;;;4995782;28;20076;-62
2022/09/07 02:25:20;;;;;;;8.90;7.15;;;18.90;99.90;;;;;;4983507;28;20421;-62
2022/09/07 02:27:50;;;;;;;12.25;9.35;;;18.90;99.90;;;;;;4990951;28;20042;-63
2022/09/07 02:30:16;;;;;;;8.73;7.70;;;18.90;99.90;;;;;;4964917;28;20042;-63
2022/09/07 02:32:42;;;;;;;8.82;6.22;;;18.90;99.90;;;;;;5009463;28;20130;-63
2022/09/07 02:35:08;;;;;;;7.88;6.55;;;18.90;99.90;;;;;;4981767;28;20045;-64
2022/09/07 02:37:35;;;;;;;8.80;5.80;;;18.90;99.90;;;;;;4996476;28;20037;-65
2022/09/07 02:40:02;;;;;;;7.25;5.50;;;18.90;99.90;;;;;;5000613;28;20046;-65
2022/09/07 02:42:31;;;;;;;7.78;4.88;;;18.90;99.90;;;;;;4967361;28;20050;-65
2022/09/07 02:44:57;;;;;;;6.68;4.47;;;18.80;99.90;;;;;;4980916;28;20042;-63
2022/09/07 02:47:48;;;;;;;7.50;4.00;;;18.70;99.90;;;;;;4984148;28;20408;-63
2022/09/07 02:50:41;;;;;;;6.28;3.30;;;18.70;99.90;;;;;;4993140;28;20069;-64
2022/09/07 02:53:26;;;;;;;3.65;2.65;;;18.60;99.90;;;;;;4976388;28;20057;-63
2022/09/07 02:55:55;;;;;;;4.45;2.80;;;18.60;99.90;;;;;;4999094;28;20065;-63
2022/09/07 02:58:44;;;;;;;3.72;2.40;;;18.50;99.90;;;;;;4980361;28;20069;-64
2022/09/07 03:01:13;;;;;;;4.05;2.80;;;18.60;99.90;;;;;;4987115;28;20053;-61
2022/09/07 03:04:05;;;;;;;6.60;2.67;;;18.50;99.90;;;;;;4983639;28;20057;-64
2022/09/07 03:06:58;;;;;;;6.63;2.88;;;18.50;99.90;;;;;;4983370;28;20042;-64
2022/09/07 03:09:29;;;;;;;7.07;3.15;;;18.40;99.90;;;;;;4988664;28;20824;-62
2022/09/07 03:11:55;;;;;;;5.32;2.65;;;18.40;99.90;;;;;;4981604;28;20042;-65
2022/09/07 03:14:24;;;;;;;5.40;2.45;;;18.40;99.90;;;;;;4972111;28;20053;-62
2022/09/07 03:16:54;;;;;;;8.23;2.53;;;18.40;99.90;;;;;;4990154;28;20511;-62
2022/09/07 03:19:19;;;;;;;5.00;2.40;;;18.30;99.90;;;;;;4980899;28;20043;-63
2022/09/07 03:21:45;;;;;;;4.07;2.10;;;18.40;99.90;;;;;;4982813;28;20097;-62
2022/09/07 03:24:11;;;;;;;3.92;2.38;;;18.30;99.90;;;;;;4984958;28;20041;-62
2022/09/07 03:26:44;;;;;;;5.10;2.22;;;18.30;99.90;;;;;;4992590;28;20046;-61
2022/09/07 03:29:09;;;;;;;4.40;2.13;;;18.30;99.90;;;;;;4967334;28;20053;-62
2022/09/07 03:31:36;;;;;;;3.45;2.15;;;18.30;99.90;;;;;;4979590;28;20041;-64
2022/09/07 03:34:02;;;;;;;4.90;2.85;;;18.30;99.90;;;;;;4968064;28;20056;-62
2022/09/07 03:36:31;;;;;;;5.03;2.00;;;18.30;99.90;;;;;;4967131;28;20037;-62
2022/09/07 03:38:58;;;;;;;3.42;2.30;;;18.40;99.90;;;;;;4984927;28;20053;-64
2022/09/07 03:41:25;;;;;;;5.75;2.03;;;18.40;99.90;;;;;;4982991;28;20226;-60
2022/09/07 03:43:51;;;;;;;4.80;2.13;;;18.30;99.90;;;;;;4980223;28;20041;-61
2022/09/07 03:46:18;;;;;;;5.20;2.40;;;18.30;99.90;;;;;;4969066;28;20362;-60
2022/09/07 03:48:48;;;;;;;4.10;2.50;;;18.30;99.90;;;;;;4972355;23;20144;-61
2022/09/07 03:51:15;;;;;;;5.90;2.65;;;18.30;99.90;;;;;;4994588;28;20053;-61
2022/09/07 03:53:43;;;;;;;3.45;1.92;;;18.30;99.90;;;;;;4997519;28;20598;-61
2022/09/07 03:56:16;;;;;;;3.85;2.08;;;18.30;99.90;;;;;;5001628;28;20045;-61
2022/09/07 03:58:43;;;;;;;6.93;2.58;;;18.30;99.90;;;;;;4997875;28;20053;-64
2022/09/07 04:01:14;;;;;;;4.15;2.20;;;18.30;99.90;;;;;;5020317;28;20377;-63
2022/09/07 04:03:40;;;;;;;5.15;2.47;;;18.30;99.90;;;;;;4989779;28;20041;-60
2022/09/07 04:06:06;;;;;;;2.60;1.80;;;18.30;99.90;;;;;;4994037;28;20041;-62
2022/09/07 04:08:34;;;;;;;3.38;2.00;;;18.40;99.90;;;;;;5002738;28;20080;-63
2022/09/07 04:11:01;;;;;;;3.97;2.30;;;18.40;99.90;;;;;;5016125;28;20068;-63
2022/09/07 04:13:28;;;;;;;4.72;2.20;;;18.40;99.90;;;;;;5014071;28;20045;-59
2022/09/07 04:15:54;;;;;;;5.05;3.00;;;18.40;99.90;;;;;;5001262;28;20064;-59
2022/09/07 04:18:21;;;;;;;5.68;2.72;;;18.40;99.90;;;;;;5014737;28;20053;-59
2022/09/07 04:20:48;;;;;;;4.78;1.95;;;18.40;99.90;;;;;;4985703;28;20132;-61
2022/09/07 04:23:14;;;;;;;5.05;2.30;;;18.30;99.90;;;;;;4971726;28;20042;-58
2022/09/07 04:25:47;;;;;;;4.05;2.40;;;18.40;99.90;;;;;;4970908;28;20535;-60
2022/09/07 04:28:14;;;;;;;5.22;2.60;;;18.40;99.90;;;;;;5008197;28;20245;-63
2022/09/07 04:30:39;;;;;;;5.40;3.10;;;18.40;99.90;;;;;;5018441;28;20111;-59
2022/09/07 04:33:05;;;;;;;6.63;2.55;;;18.30;99.90;;;;;;4971057;28;20075;-61
2022/09/07 04:35:35;;;;;;;5.82;2.80;;;18.30;99.90;;;;;;5000499;28;20200;-61
2022/09/07 04:38:01;;;;;;;6.47;2.70;;;18.30;99.90;;;;;;4987543;28;20044;-60
2022/09/07 04:40:27;;;;;;;8.02;3.10;;;18.30;99.90;;;;;;4977923;28;20053;-59
2022/09/07 04:42:52;;;;;;;7.60;2.63;;;18.30;99.90;;;;;;4998991;28;20778;-60
2022/09/07 04:45:18;;;;;;;6.85;2.90;;;18.30;99.90;;;;;;4996271;28;20098;-60
2022/09/07 04:47:47;;;;;;;8.48;3.53;;;18.30;99.90;;;;;;4990625;28;20495;-59
2022/09/07 04:50:15;;;;;;;7.45;3.60;;;18.30;99.90;;;;;;5001673;28;20037;-58
2022/09/07 04:52:44;;;;;;;6.43;3.17;;;18.30;99.90;;;;;;4999198;28;20037;-59
2022/09/07 04:55:11;;;;;;;6.18;3.53;;;18.30;99.90;;;;;;4986311;28;20037;-61
2022/09/07 04:57:37;;;;;;;8.15;3.92;;;18.30;99.90;;;;;;4987954;28;20120;-59
2022/09/07 05:00:08;;;;;;;8.88;3.10;;;18.30;99.90;;;;;;5017342;28;20068;-61
2022/09/07 05:02:34;;;;;;;13.27;4.65;;;18.30;99.90;;;;;;4985971;28;20056;-60
2022/09/07 05:05:00;;;;;;;11.77;4.70;;;18.30;99.90;;;;;;4996325;28;20045;-60
2022/09/07 05:07:25;;;;;;;8.55;4.43;;;18.30;99.90;;;;;;4975495;28;20538;-59
2022/09/07 05:09:51;;;;;;;11.05;5.60;;;18.30;99.90;;;;;;4975228;28;20526;-60
2022/09/07 05:12:17;;;;;;;10.30;4.30;;;18.30;99.90;;;;;;4977151;28;20065;-59
2022/09/07 05:14:43;;;;;;;8.50;4.90;;;18.30;99.90;;;;;;4980844;28;20041;-58
2022/09/07 05:17:09;;;;;;;10.13;4.90;;;18.30;99.90;;;;;;4994737;28;20045;-60
2022/09/07 05:19:35;;;;;;;10.90;6.55;;;18.30;99.90;;;;;;4973622;28;20041;-60
2022/09/07 05:22:01;;;;;;;7.68;4.43;;;18.30;99.90;;;;;;4974519;28;20080;-59
2022/09/07 05:24:26;;;;;;;12.52;5.78;;;18.20;99.90;;;;;;4981685;28;20048;-60
2022/09/07 05:26:52;;;;;;;10.45;6.32;;;18.20;99.90;;;;;;4994380;28;20556;-60
2022/09/07 05:29:18;;;;;;;10.20;6.35;;;18.20;99.90;;;;;;4959995;28;20080;-57
2022/09/07 05:31:45;;;;;;;14.20;7.30;;;18.20;99.90;;;;;;4995888;28;20045;-59
2022/09/07 05:34:11;;;;;;;9.75;6.90;;;18.20;99.90;;;;;;4979429;28;20053;-59
2022/09/07 05:36:37;;;;;;;8.63;5.53;;;18.20;99.90;;;;;;4978505;28;20804;-59
2022/09/07 05:39:05;;;;;;;9.95;6.80;;;18.20;99.90;;;;;;4987685;28;20038;-58
2022/09/07 05:41:31;;;;;;;9.65;7.07;;;18.20;99.90;;;;;;4997105;28;20124;-58
2022/09/07 05:43:56;;;;;;;6.15;4.72;;;18.10;99.90;;;;;;4993228;28;20025;-62
2022/09/07 05:46:22;;;;;;;9.15;6.70;;;18.10;99.90;;;;;;4982526;28;20033;-59
2022/09/07 05:48:48;;;;;;;9.90;5.72;;;18.10;99.90;;;;;;4998123;28;20221;-63
2022/09/07 05:51:15;;;;;;;6.85;4.40;;;18.10;99.90;;;;;;4993590;28;20128;-63
2022/09/07 05:53:43;;;;;;;10.80;7.13;;;18.10;99.90;;;;;;5003104;28;20037;-63
2022/09/07 05:56:09;;;;;;;7.45;6.53;;;18.10;99.90;;;;;;5023027;28;20083;-58
2022/09/07 05:58:35;;;;;;;8.13;6.10;;;18.10;99.90;;;;;;5002236;28;20041;-60
2022/09/07 06:01:05;;;;;;;7.55;6.85;;;18.10;99.90;;;;;;5021591;28;20492;-61
2022/09/07 06:03:32;;;;;;;9.32;7.03;;;18.10;99.90;;;;;;5005276;28;20415;-61
2022/09/07 06:06:12;;;;;;;8.40;4.88;;;18.10;99.90;;;;;;5012441;28;20640;-61
2022/09/07 06:08:42;;;;;;;8.38;5.95;;;18.00;99.90;;;;;;4981798;28;20040;-63
2022/09/07 06:11:11;;;;;;;9.25;7.63;;;18.00;99.90;;;;;;5006648;28;20064;-66
2022/09/07 06:13:37;;;;;;;6.80;5.53;;;18.00;99.90;;;;;;4989304;28;20669;-62
2022/09/07 06:16:05;;;;;;;7.88;6.90;;;18.00;99.90;;;;;;4999207;28;20057;-61
2022/09/07 06:18:33;;;;;;;7.25;6.18;;;18.00;99.90;;;;;;4998738;28;22252;-61
2022/09/07 06:21:10;;;;;;;9.52;7.82;;;18.10;99.90;;;;;;5001450;28;20046;-62
2022/09/07 06:23:38;;;;;;;9.93;7.50;;;18.00;99.90;;;;;;4993655;28;20033;-62
2022/09/07 06:26:04;;;;;;;9.70;8.13;;;18.00;99.90;;;;;;4985126;28;20520;-61
2022/09/07 06:28:35;;;;;;;10.00;7.75;;;17.90;99.90;;;;;;4997209;28;20103;-62
2022/09/07 06:31:10;;;;;;;8.65;7.75;;;17.90;99.90;;;;;;4989180;28;20088;-62
2022/09/07 06:33:36;;;;;;;10.10;6.88;;;17.90;99.90;;;;;;5003255;28;20323;-62
2022/09/07 06:36:05;;;;;;;11.55;8.95;;;17.90;99.90;;;;;;4993265;28;20076;-62
2022/09/07 06:38:32;;;;;;;9.60;8.60;;;18.00;99.90;;;;;;4987911;28;20038;-59
2022/09/07 06:41:07;;;;;;;11.13;10.07;;;17.90;99.90;;;;;;5007333;28;20060;-66
2022/09/07 06:43:33;;;;;;;11.60;10.40;;;18.10;99.90;;;;;;4986288;28;20079;-62
2022/09/07 06:45:59;;;;;;;13.20;10.35;;;18.10;99.90;;;;;;5005786;28;20042;-60
2022/09/07 06:48:25;;;;;;;12.10;10.18;;;18.20;99.90;;;;;;5005020;28;20056;-63
2022/09/07 06:51:06;;;;;;;13.05;10.02;;;18.20;99.90;;;;;;5002398;28;20041;-61
2022/09/07 06:53:35;;;;;;;14.45;12.98;;;18.30;99.90;;;;;;4992918;28;20060;-63
2022/09/07 06:56:03;;;;;;;12.52;11.25;;;18.30;99.90;;;;;;5003511;28;20046;-65
2022/09/07 06:58:29;;;;;;;12.55;11.25;;;18.30;99.90;;;;;;4980616;28;20046;-59
2022/09/07 07:00:55;;;;;;;15.27;13.73;;;18.30;99.90;;;;;;4995603;28;20453;-61
2022/09/07 07:03:21;;;;;;;16.83;14.10;;;18.40;99.90;;;;;;5021454;28;20524;-63
2022/09/07 07:05:54;;;;;;;17.60;13.82;;;18.40;99.90;;;;;;5001060;28;20127;-62
2022/09/07 07:08:22;;;;;;;16.33;14.63;;;18.50;99.90;;;;;;5026627;28;20052;-64
2022/09/07 07:10:49;;;;;;;15.77;14.07;;;18.50;99.90;;;;;;5003317;28;20084;-61
2022/09/07 07:13:15;;;;;;;17.27;15.00;;;18.60;99.90;;;;;;5011162;28;20436;-62
2022/09/07 07:15:41;;;;;;;16.48;14.10;;;18.60;99.90;;;;;;5006203;28;20038;-63
2022/09/07 07:18:08;;;;;;;18.80;16.80;;;18.70;99.90;;;;;;5007119;28;20086;-62
2022/09/07 07:20:35;;;;;;;18.02;15.50;;;18.80;99.90;;;;;;4992275;28;20129;-60
2022/09/07 07:23:01;;;;;;;17.20;15.40;;;18.80;99.90;;;;;;5010340;28;20508;-61
2022/09/07 07:25:27;;;;;;;17.80;15.55;;;18.80;99.90;;;;;;5019197;28;20075;-62
2022/09/07 07:27:53;;;;;;;19.33;16.52;;;18.80;99.90;;;;;;4983976;28;20038;-61
2022/09/07 07:30:19;;;;;;;18.60;16.50;;;18.80;99.90;;;;;;5003997;28;20095;-63
2022/09/07 07:35:30;;;;;;;21.48;17.25;;;18.90;99.90;;;;;;4998665;28;20502;-65
2022/09/07 07:37:56;;;;;;;19.08;17.17;;;19.00;99.90;;;;;;5003224;28;20271;-63
2022/09/07 07:40:22;;;;;;;19.05;16.10;;;19.20;99.90;;;;;;4995787;28;20045;-63
2022/09/07 07:42:47;;;;;;;18.92;16.20;;;19.30;99.90;;;;;;5007896;28;20142;-64
2022/09/07 07:45:13;;;;;;;18.73;16.83;;;19.40;99.90;;;;;;5016755;28;20330;-62
2022/09/07 07:47:39;;;;;;;17.98;16.08;;;19.50;99.90;;;;;;4966332;28;20778;-63
2022/09/07 07:50:06;;;;;;;18.67;16.33;;;19.50;99.90;;;;;;4986530;28;20064;-61
2022/09/07 07:52:37;;;;;;;19.17;16.25;;;19.60;99.90;;;;;;5014349;28;20508;-63
2022/09/07 07:55:04;;;;;;;17.50;15.70;;;19.70;99.90;;;;;;4984088;28;20038;-63
2022/09/07 07:57:30;;;;;;;17.83;16.02;;;19.80;99.90;;;;;;5002795;28;20401;-62
2022/09/07 07:59:56;;;;;;;16.75;14.38;;;19.90;99.90;;;;;;4998379;28;20103;-63
2022/09/07 08:02:21;;;;;;;17.33;15.57;;;20.00;99.90;;;;;;5014980;28;20107;-63
2022/09/07 08:04:47;;;;;;;16.38;14.70;;;20.10;99.90;;;;;;4987639;28;20463;-63
2022/09/07 08:07:14;;;;;;;17.45;15.55;;;20.10;99.90;;;;;;5000925;28;20057;-62
2022/09/07 08:09:45;;;;;;;18.00;15.77;;;20.20;99.90;;;;;;4981842;28;20041;-63
2022/09/07 08:12:13;;;;;;;14.63;13.23;;;20.20;99.90;;;;;;4993179;28;20488;-62
2022/09/07 08:14:39;;;;;;;16.90;14.57;;;20.30;99.90;;;;;;4995504;28;20625;-63
2022/09/07 08:17:10;;;;;;;15.95;14.43;;;20.30;99.90;;;;;;4989931;28;20037;-63
2022/09/07 08:19:37;;;;;;;16.05;14.35;;;20.30;99.90;;;;;;4995567;28;20044;-61
2022/09/07 08:22:03;;;;;;;14.80;12.73;;;20.30;99.90;;;;;;5010841;28;20277;-60
2022/09/07 08:24:32;;;;;;;16.38;14.30;;;20.30;99.90;;;;;;4979769;28;20076;-61
2022/09/07 08:26:58;;;;;;;16.30;14.55;;;20.30;99.90;;;;;;4990577;28;20049;-60
2022/09/07 08:29:24;;;;;;;13.48;12.18;;;20.30;99.90;;;;;;5016661;28;20552;-60
2022/09/07 08:31:49;;;;;;;14.98;13.45;;;20.30;99.90;;;;;;4994460;28;20946;-60
2022/09/07 08:34:15;;;;;;;14.43;12.95;;;20.30;99.90;;;;;;4986657;28;20076;-62
2022/09/07 08:36:41;;;;;;;14.32;12.82;;;20.40;99.90;;;;;;4996079;28;20435;-61
2022/09/07 08:39:07;;;;;;;14.82;13.30;;;20.50;99.90;;;;;;4998336;28;20075;-60
2022/09/07 08:42:03;;;;;;;13.85;12.45;;;20.60;99.90;;;;;;5004070;28;20052;-60
2022/09/07 08:44:50;;;;;;;13.32;12.00;;;20.70;99.90;;;;;;4997948;28;20325;-61
2022/09/07 08:47:35;;;;;;;13.70;12.23;;;20.80;99.90;;;;;;5000563;28;20045;-60
2022/09/07 08:50:24;;;;;;;13.55;12.20;;;20.80;99.90;;;;;;5010587;28;20497;-63
2022/09/07 08:53:10;;;;;;;12.82;11.65;;;20.80;99.90;;;;;;4997332;28;20053;-62
2022/09/07 08:55:48;;;;;;;12.45;11.15;;;20.90;99.90;;;;;;5001243;28;20069;-62
2022/09/07 08:58:22;;;;;;;12.57;11.27;;;21.00;99.90;;;;;;5001902;28;20045;-61
2022/09/07 09:00:48;;;;;;;11.65;10.45;;;21.00;99.90;;;;;;5000765;28;20678;-61
2022/09/07 09:03:41;;;;;;;12.93;11.63;;;21.00;99.90;;;;;;5000501;28;20041;-62
2022/09/07 09:06:17;;;;;;;12.48;11.27;;;20.90;99.90;;;;;;4998731;28;20513;-62
2022/09/07 09:09:14;;;;;;;12.20;10.98;;;20.80;99.90;;;;;;5006521;28;20563;-61
2022/09/07 09:11:55;;;;;;;11.82;10.73;;;20.70;99.90;;;;;;4976912;28;20046;-63
2022/09/07 09:14:29;;;;;;;11.23;10.10;;;20.80;99.90;;;;;;5003773;28;20116;-64
2022/09/07 09:17:06;;;;;;;10.30;9.30;;;21.00;99.90;;;;;;4984929;28;20095;-62
2022/09/07 09:19:58;;;;;;;10.48;8.90;;;21.20;99.90;;;;;;4986290;28;20083;-64
2022/09/07 09:22:27;;;;;;;9.73;8.27;;;21.30;99.90;;;;;;4997759;28;20076;-63
2022/09/07 09:25:12;;;;;;;9.85;8.85;;;21.30;99.90;;;;;;5005288;28;20073;-63
2022/09/07 09:27:38;;;;;;;7.50;6.80;;;21.50;99.90;;;;;;5000217;28;20041;-65
2022/09/07 09:30:21;;;;;;;8.55;6.50;;;21.70;99.90;;;;;;5017670;28;20582;-63
2022/09/07 09:33:10;;;;;;;7.35;6.60;;;21.80;99.90;;;;;;5021973;28;20037;-63
2022/09/07 09:35:38;;;;;;;7.75;5.63;;;21.80;99.90;;;;;;5004627;28;20128;-66
2022/09/07 09:38:04;;;;;;;6.13;5.20;;;21.60;99.90;;;;;;4984955;28;20668;-61
2022/09/07 09:40:33;;;;;;;7.45;5.97;;;21.70;99.90;;;;;;5004002;28;20045;-61
2022/09/07 09:43:03;;;;;;;6.82;5.18;;;21.80;99.90;;;;;;4997650;28;20056;-62
2022/09/07 09:45:35;;;;;;;6.45;4.63;;;22.00;99.90;;;;;;5006419;28;20067;-62
2022/09/07 09:48:07;;;;;;;6.35;4.78;;;22.20;99.90;;;;;;5001970;23;20029;-60
2022/09/07 09:50:39;;;;;;;5.30;4.43;;;22.20;99.90;;;;;;5006824;28;20465;-60
2022/09/07 09:53:06;;;;;;;5.93;4.72;;;22.10;99.90;;;;;;5027506;28;20097;-59
2022/09/07 09:55:35;;;;;;;4.30;3.75;;;21.90;99.90;;;;;;5027228;28;20040;-60
2022/09/07 09:58:06;;;;;;;5.45;4.20;;;21.80;99.90;;;;;;5028437;28;20506;-60
2022/09/07 10:00:33;;;;;;;4.40;3.40;;;22.10;99.90;;;;;;5037039;28;20038;-58
2022/09/07 10:03:14;;;;;;;4.68;3.42;;;22.00;99.90;;;;;;5026210;28;20044;-60
2022/09/07 10:05:42;;;;;;;4.72;3.20;;;21.80;99.90;;;;;;5025900;28;20048;-58
2022/09/07 10:08:31;;;;;;;4.65;3.50;;;22.00;99.90;;;;;;5008948;28;20059;-61
2022/09/07 10:11:04;;;;;;;4.80;3.00;;;22.20;99.90;;;;;;5029484;28;20151;-61
2022/09/07 10:13:45;;;;;;;3.72;3.00;;;22.30;99.90;;;;;;5025481;28;20563;-58
2022/09/07 10:16:11;;;;;;;3.03;2.40;;;22.50;99.90;;;;;;5024036;28;20044;-60
2022/09/07 10:18:53;;;;;;;3.05;2.60;;;22.60;99.90;;;;;;5022600;28;20116;-60
2022/09/07 10:21:26;;;;;;;4.05;3.03;;;22.60;99.90;;;;;;5029577;28;20419;-60
2022/09/07 10:24:13;;;;;;;4.53;2.60;;;22.80;99.90;;;;;;5032315;28;20041;-62
2022/09/07 10:26:43;;;;;;;4.40;2.75;;;23.00;99.90;;;;;;5004799;28;20057;-59
2022/09/07 10:29:34;;;;;;;5.72;3.05;;;23.10;99.90;;;;;;5014031;28;20132;-59
2022/09/07 10:32:18;;;;;;;3.50;2.20;;;23.00;98.90;;;;;;5015752;28;20510;-61
2022/09/07 10:35:00;;;;;;;4.63;3.33;;;23.00;99.20;;;;;;5025149;28;20059;-59
2022/09/07 10:37:48;;;;;;;3.42;2.50;;;22.90;99.30;;;;;;5024443;28;20458;-61
2022/09/07 10:40:33;;;;;;;3.33;2.10;;;23.00;99.70;;;;;;5004114;28;20064;-61
2022/09/07 10:43:20;;;;;;;4.15;2.70;;;23.20;99.60;;;;;;5006486;28;20752;-60
2022/09/07 10:46:15;;;;;;;4.10;1.90;;;23.50;99.30;;;;;;5007733;28;20076;-61
2022/09/07 10:49:15;;;;;;;2.78;1.75;;;23.50;98.50;;;;;;4990592;28;20048;-63
2022/09/07 10:52:04;;;;;;;2.85;1.67;;;23.50;97.70;;;;;;5003617;28;20520;-59
2022/09/07 10:55:09;;;;;;;1.77;1.20;;;23.60;98.00;;;;;;4990235;28;20048;-60
2022/09/07 10:58:02;;;;;;;2.40;1.48;;;23.70;97.90;;;;;;5008635;28;20052;-59
2022/09/07 11:00:54;;;;;;;2.78;1.70;;;23.80;97.00;;;;;;5011118;28;20056;-61
2022/09/07 11:03:50;;;;;;;2.40;1.63;;;24.00;96.50;;;;;;5005812;28;20048;-60
2022/09/07 11:06:24;;;;;;;1.40;1.23;;;24.10;95.80;;;;;;5028621;28;20041;-62
2022/09/07 11:08:58;;;;;;;2.63;1.45;;;23.90;96.50;;;;;;5003056;28;20044;-61
2022/09/07 11:11:40;;;;;;;2.72;1.50;;;24.10;96.70;;;;;;5008921;28;20047;-60
2022/09/07 11:14:13;;;;;;;4.38;1.40;;;24.40;96.90;;;;;;4995500;28;20567;-62
2022/09/07 11:16:47;;;;;;;2.78;1.40;;;24.60;96.50;;;;;;4998027;28;20048;-61
2022/09/07 11:19:48;;;;;;;3.35;1.48;;;24.50;95.60;;;;;;4998490;28;20503;-61
2022/09/07 11:22:35;;;;;;;1.80;1.42;;;24.70;95.80;;;;;;4994358;28;20041;-63
2022/09/07 11:25:13;;;;;;;1.88;1.23;;;24.50;95.90;;;;;;5010619;28;20050;-59
2022/09/07 11:27:48;;;;;;;2.42;1.60;;;24.60;96.30;;;;;;5026186;28;20052;-60
2022/09/07 11:30:32;;;;;;;4.38;1.60;;;24.70;96.20;;;;;;4997634;28;20049;-60
2022/09/07 11:33:10;;;;;;;2.42;1.50;;;24.80;95.90;;;;;;5010057;28;20081;-60
2022/09/07 11:35:49;;;;;;;2.40;1.42;;;24.50;95.50;;;;;;5010903;28;20032;-61
2022/09/07 11:38:34;;;;;;;2.97;1.60;;;24.60;95.90;;;;;;5010149;28;20041;-62
2022/09/07 11:41:02;;;;;;;4.60;1.40;;;24.60;95.90;;;;;;5009841;28;20052;-61
2022/09/07 11:43:40;;;;;;;2.95;1.70;;;24.60;95.80;;;;;;5006102;28;20060;-61
2022/09/07 11:46:05;;;;;;;3.63;1.63;;;24.70;95.80;;;;;;5005355;28;20798;-61
2022/09/07 11:48:58;;;;;;;2.67;1.70;;;24.70;95.80;;;;;;5008987;28;20143;-61
2022/09/07 11:51:46;;;;;;;2.70;1.67;;;24.60;95.40;;;;;;4988114;28;20068;-62
2022/09/07 11:54:27;;;;;;;3.00;1.38;;;24.50;95.40;;;;;;5010232;28;20091;-61
2022/09/07 11:57:05;;;;;;;4.90;2.25;;;24.50;96.00;;;;;;5018510;28;20053;-59
2022/09/07 12:00:10;;;;;;;2.42;1.50;;;24.40;95.60;;;;;;5023827;28;20048;-60
2022/09/07 12:02:51;;;;;;;1.77;1.23;;;24.50;95.80;;;;;;5005136;28;20068;-56
2022/09/07 12:05:34;;;;;;;4.22;1.75;;;24.40;95.90;;;;;;5009801;28;20048;-61
2022/09/07 12:08:12;;;;;;;2.40;1.67;;;24.50;96.20;;;;;;5003665;28;20045;-62
2022/09/07 12:10:53;;;;;;;2.60;1.48;;;24.50;96.00;;;;;;5003345;28;20399;-60
2022/09/07 12:13:34;;;;;;;1.48;1.05;;;24.50;95.30;;;;;;5016529;28;20053;-62
2022/09/07 12:16:12;;;;;;;2.47;1.45;;;24.40;95.60;;;;;;5017288;28;20857;-61
2022/09/07 12:19:00;;;;;;;5.88;1.80;;;24.40;95.50;;;;;;5007991;28;20049;-57
2022/09/07 12:21:41;;;;;;;5.22;1.35;;;24.30;95.10;;;;;;5014094;28;20409;-63
2022/09/07 12:24:38;;;;;;;1.58;1.25;;;24.20;95.50;;;;;;4994725;28;20093;-59
2022/09/07 12:27:07;;;;;;;3.13;1.48;;;24.20;95.30;;;;;;4999414;28;20669;-60
2022/09/07 12:29:33;;;;;;;4.05;1.42;;;24.30;95.80;;;;;;4998261;28;20594;-60
2022/09/07 12:32:02;;;;;;;3.30;1.42;;;24.60;95.90;;;;;;5021849;28;20044;-61
2022/09/07 12:34:31;;;;;;;2.88;1.80;;;24.80;95.90;;;;;;5025565;28;20072;-61
2022/09/07 12:37:02;;;;;;;3.92;1.58;;;24.80;95.70;;;;;;4998952;28;20045;-62
2022/09/07 12:39:32;;;;;;;3.53;1.80;;;24.90;95.50;;;;;;5012905;28;20426;-65
2022/09/07 12:42:03;;;;;;;3.85;1.88;;;25.10;94.50;;;;;;5009348;28;20043;-62
2022/09/07 12:44:29;;;;;;;2.35;1.30;;;25.20;95.00;;;;;;4996016;28;20038;-62
2022/09/07 12:46:56;;;;;;;2.55;1.67;;;25.50;95.10;;;;;;4992427;28;20083;-61
2022/09/07 12:50:05;;;;;;;2.83;1.83;;;25.60;94.60;;;;;;5000173;28;20045;-61
2022/09/07 12:52:47;;;;;;;3.05;1.38;;;25.70;94.00;;;;;;5001117;28;20045;-60
2022/09/07 12:55:47;;;;;;;2.22;1.20;;;25.50;94.10;;;;;;5008600;28;20053;-61
2022/09/07 12:58:37;;;;;;;2.00;1.20;;;25.50;94.10;;;;;;5005801;28;20523;-61
2022/09/07 13:01:25;;;;;;;1.77;1.20;;;25.80;94.50;;;;;;5023367;28;20049;-62
2022/09/07 13:04:09;;;;;;;2.40;1.50;;;26.20;93.90;;;;;;5028516;28;20584;-62
2022/09/07 13:07:11;;;;;;;2.20;1.20;;;26.30;93.30;;;;;;5026751;28;20396;-63
2022/09/07 13:09:41;;;;;;;1.73;1.38;;;25.90;92.60;;;;;;5024082;28;20051;-61
2022/09/07 13:12:25;;;;;;;2.75;1.63;;;25.90;92.70;;;;;;5010852;28;20067;-60
2022/09/07 13:14:56;;;;;;;4.53;1.45;;;26.10;92.70;;;;;;5019086;28;20415;-60